Bunker, Utah
Current Conditions -  °F | °C
As of 2:15 AM on Monday 22 Dec 2014 (Local Time) from KPVU Reporting Station
Broken Clouds Broken Clouds  
Wind Chill: 36°   Ceiling: 4800
Heat Index: 39°   Visibility: 10mi
Dew Point: 36°   Wind: 5mph
Humidity: 87%   Direction: 360°N
Pressure: 30.05"   Gusts: NA
Location:  40.2724°N, 111.717°W
Report Text: KPVU 220915Z AUTO 36004KT 10SM SCT033 BKN048 04/02 A3005 RMK AO1 P0001
Loading
Personal Weather Stations






























Interactive Weather Map New forecast layout! Learn more

10-Day Weather Forecast

Advertisements
Track Severe Weather on mobile